createdAt,value
2017-06-23T00:01:48.878Z,6.77
2017-06-23T00:04:18.641Z,6.72
2017-06-23T00:06:51.783Z,6.50
2017-06-23T00:09:21.655Z,6.50
2017-06-23T00:11:54.363Z,6.83
2017-06-23T00:14:20.553Z,6.10
2017-06-23T00:16:53.323Z,6.20
2017-06-23T00:19:21.281Z,6.75
2017-06-23T00:21:54.003Z,6.65
2017-06-23T00:24:24.250Z,6.32
2017-06-23T00:26:57.400Z,7.10
2017-06-23T00:29:25.182Z,6.50
2017-06-23T00:31:57.484Z,6.40
2017-06-23T00:34:25.290Z,6.62
2017-06-23T00:36:54.760Z,7.35
2017-06-23T00:39:27.342Z,6.70
2017-06-23T00:41:59.703Z,6.97
2017-06-23T00:44:30.014Z,6.53
2017-06-23T00:47:04.507Z,6.23
2017-06-23T00:49:34.447Z,6.47
2017-06-23T00:52:04.629Z,7.05
2017-06-23T00:54:37.419Z,7.55
2017-06-23T00:57:10.315Z,6.90
2017-06-23T00:59:42.723Z,6.72
2017-06-23T01:02:10.511Z,7.80
2017-06-23T01:04:40.355Z,7.62
2017-06-23T01:07:10.540Z,7.40
2017-06-23T01:09:43.206Z,7.90
2017-06-23T01:12:12.693Z,7.60
2017-06-23T01:14:42.546Z,7.90
2017-06-23T01:17:14.978Z,7.70
2017-06-23T01:19:47.674Z,7.85
2017-06-23T01:22:20.200Z,7.57
2017-06-23T01:24:49.822Z,8.00
2017-06-23T01:27:22.505Z,7.97
2017-06-23T01:29:55.188Z,8.35
2017-06-23T01:32:24.918Z,8.25
2017-06-23T01:34:51.156Z,8.50
2017-06-23T01:37:20.989Z,8.60
2017-06-23T01:39:50.567Z,8.57
2017-06-23T01:42:16.815Z,9.03
2017-06-23T01:44:58.763Z,9.27
2017-06-23T01:47:28.513Z,9.60
2017-06-23T01:49:54.723Z,10.50
2017-06-23T01:52:21.219Z,9.90
2017-06-23T01:57:46.633Z,11.07
2017-06-23T02:00:12.849Z,11.32
2017-06-23T02:02:39.027Z,11.30
2017-06-23T02:05:05.251Z,12.30
2017-06-23T02:07:31.458Z,13.62
2017-06-23T02:09:57.642Z,14.27
2017-06-23T02:12:24.078Z,14.20
2017-06-23T02:14:50.238Z,15.38
2017-06-23T02:17:16.418Z,15.63
2017-06-23T02:19:42.636Z,17.02
2017-06-23T02:22:08.827Z,17.58
2017-06-23T02:24:35.143Z,19.30
2017-06-23T02:27:01.330Z,19.58
2017-06-23T02:29:27.522Z,19.60
2017-06-23T02:31:53.705Z,20.75
2017-06-23T02:34:19.930Z,21.55
2017-06-23T02:36:46.114Z,20.92
2017-06-23T02:39:16.218Z,21.10
2017-06-23T02:41:48.561Z,21.62
2017-06-23T02:44:14.742Z,22.83
2017-06-23T02:46:44.281Z,22.92
2017-06-23T02:49:17.645Z,23.60
2017-06-23T02:51:43.853Z,23.27
2017-06-23T02:54:10.029Z,23.38
2017-06-23T02:56:36.212Z,23.90
2017-06-23T02:59:08.855Z,23.67
2017-06-23T03:04:31.039Z,23.20
2017-06-23T03:06:57.250Z,23.55
2017-06-23T03:09:23.490Z,22.00
2017-06-23T03:11:49.958Z,23.52
2017-06-23T03:14:16.132Z,23.40
2017-06-23T03:16:42.294Z,22.52
2017-06-23T03:19:08.549Z,22.77
2017-06-23T03:21:34.714Z,22.60
2017-06-23T03:24:00.882Z,22.62
2017-06-23T03:26:27.070Z,22.40
2017-06-23T03:28:53.257Z,22.87
2017-06-23T03:31:19.441Z,23.50
2017-06-23T03:33:45.641Z,24.00
2017-06-23T03:36:11.801Z,22.42
2017-06-23T03:38:37.984Z,23.15
2017-06-23T03:41:04.174Z,23.60
2017-06-23T03:43:30.366Z,22.20
2017-06-23T03:45:56.549Z,23.65
2017-06-23T03:48:22.717Z,23.52
2017-06-23T03:50:48.877Z,23.10
2017-06-23T03:53:15.040Z,23.98
2017-06-23T03:55:41.501Z,22.90
2017-06-23T03:58:07.791Z,22.50
2017-06-23T04:00:33.998Z,22.27
2017-06-23T04:03:00.264Z,21.90
2017-06-23T04:05:26.470Z,21.02
2017-06-23T04:07:52.666Z,21.25
2017-06-23T04:10:18.858Z,20.67
2017-06-23T04:12:48.637Z,21.00
2017-06-23T04:15:15.882Z,20.92
2017-06-23T04:17:42.206Z,20.90
2017-06-23T04:20:08.409Z,20.60
2017-06-23T04:22:38.025Z,21.67
2017-06-23T04:25:10.258Z,21.10
2017-06-23T04:27:39.989Z,21.62
2017-06-23T04:30:12.975Z,21.17
2017-06-23T04:32:45.762Z,21.35
2017-06-23T04:35:15.519Z,21.63
2017-06-23T04:37:48.035Z,21.48
2017-06-23T04:40:20.555Z,22.73
2017-06-23T04:42:50.049Z,21.85
2017-06-23T04:45:19.670Z,21.80
2017-06-23T04:47:45.853Z,22.27
2017-06-23T04:50:12.039Z,21.73
2017-06-23T04:52:38.220Z,20.98
2017-06-23T04:55:04.423Z,21.70
2017-06-23T04:57:36.574Z,21.92
2017-06-23T05:00:09.129Z,21.80
2017-06-23T05:02:41.784Z,20.83
2017-06-23T05:05:14.651Z,20.17
2017-06-23T05:07:44.448Z,21.30
2017-06-23T05:10:16.890Z,20.23
2017-06-23T05:12:46.930Z,20.60
2017-06-23T05:15:13.152Z,20.52
2017-06-23T05:17:45.498Z,20.65
2017-06-23T05:20:15.490Z,19.70
2017-06-23T05:22:48.102Z,19.37
2017-06-23T05:25:17.290Z,20.20
2017-06-23T05:27:49.698Z,19.95
2017-06-23T05:30:19.809Z,19.90
2017-06-23T05:32:49.607Z,20.20
2017-06-23T05:35:19.303Z,22.57
2017-06-23T05:37:46.773Z,20.12
2017-06-23T05:40:16.100Z,20.30
2017-06-23T05:42:45.786Z,18.83
2017-06-23T05:45:15.516Z,18.30
2017-06-23T05:47:45.143Z,19.70
2017-06-23T05:50:14.610Z,21.60
2017-06-23T05:52:42.582Z,19.00
2017-06-23T05:55:17.096Z,18.95
2017-06-23T05:57:47.070Z,20.00
2017-06-23T06:00:16.507Z,19.75
2017-06-23T06:02:49.089Z,19.43
2017-06-23T06:05:21.984Z,20.83
2017-06-23T06:07:54.386Z,19.85
2017-06-23T06:10:26.882Z,20.52
2017-06-23T06:12:54.650Z,20.50
2017-06-23T06:15:20.826Z,20.33
2017-06-23T06:17:50.218Z,19.83
2017-06-23T06:20:22.773Z,20.40
2017-06-23T06:22:55.654Z,20.27
2017-06-23T06:25:21.867Z,21.12
2017-06-23T06:27:51.321Z,20.17
2017-06-23T06:30:23.995Z,20.90
2017-06-23T06:32:56.767Z,20.95
2017-06-23T06:35:29.620Z,21.90
2017-06-23T06:37:59.397Z,20.70
2017-06-23T06:40:29.037Z,22.00
2017-06-23T06:42:58.572Z,22.10
2017-06-23T06:45:28.118Z,22.53
2017-06-23T06:48:00.851Z,21.85
2017-06-23T06:50:33.924Z,20.70
2017-06-23T06:53:03.894Z,21.08
2017-06-23T06:55:33.638Z,21.62
2017-06-23T06:58:03.578Z,21.52
2017-06-23T07:00:36.317Z,22.35
2017-06-23T07:03:09.099Z,22.42
2017-06-23T07:05:39.258Z,23.52
2017-06-23T07:08:11.790Z,20.80
2017-06-23T07:10:39.582Z,21.90
2017-06-23T07:13:12.131Z,23.00
2017-06-23T07:15:44.839Z,22.95
2017-06-23T07:18:17.409Z,22.33
2017-06-23T07:20:50.538Z,23.38
2017-06-23T07:23:20.294Z,22.20
2017-06-23T07:25:50.001Z,22.30
2017-06-23T07:28:16.205Z,22.87
2017-06-23T07:30:46.359Z,22.55
2017-06-23T07:33:16.153Z,22.87
2017-06-23T07:35:45.955Z,22.17
2017-06-23T07:38:18.388Z,22.90
2017-06-23T07:40:51.167Z,22.73
2017-06-23T07:43:20.886Z,22.50
2017-06-23T07:45:50.814Z,22.65
2017-06-23T07:48:23.618Z,22.07
2017-06-23T07:50:56.286Z,22.55
2017-06-23T07:53:30.946Z,22.08
2017-06-23T07:56:00.386Z,21.98
2017-06-23T07:58:30.118Z,21.90
2017-06-23T08:01:04.574Z,21.98
2017-06-23T08:03:37.089Z,21.80
2017-06-23T08:06:06.821Z,22.20
2017-06-23T08:08:39.283Z,22.02
2017-06-23T08:11:11.830Z,23.00
2017-06-23T08:13:41.696Z,23.40
2017-06-23T08:16:18.229Z,22.85
2017-06-23T08:18:50.743Z,22.08
2017-06-23T08:21:20.562Z,23.08
2017-06-23T08:23:57.132Z,21.80
2017-06-23T08:26:33.885Z,23.40
2017-06-23T08:29:17.274Z,21.08
2017-06-23T08:31:50.670Z,21.73
2017-06-23T08:34:23.418Z,20.70
2017-06-23T08:36:55.542Z,21.10
2017-06-23T08:39:25.748Z,21.73
2017-06-23T08:42:09.650Z,21.55
2017-06-23T08:44:42.580Z,22.65
2017-06-23T08:47:14.928Z,22.50
2017-06-23T08:49:47.702Z,21.90
2017-06-23T08:52:17.155Z,21.77
2017-06-23T08:54:44.638Z,23.27
2017-06-23T08:57:17.041Z,23.13
2017-06-23T08:59:46.341Z,22.90
2017-06-23T09:02:37.177Z,21.87
2017-06-23T09:05:03.523Z,24.00
2017-06-23T09:07:29.779Z,23.10
2017-06-23T09:09:59.522Z,23.20
2017-06-23T09:12:32.055Z,21.98
2017-06-23T09:15:02.205Z,22.27
2017-06-23T09:17:28.431Z,20.50
2017-06-23T09:20:01.394Z,20.05
2017-06-23T09:22:27.615Z,20.70
2017-06-23T09:24:53.826Z,20.75
2017-06-23T09:27:20.094Z,20.00
2017-06-23T09:29:46.284Z,20.25
2017-06-23T09:32:18.634Z,19.05
2017-06-23T09:34:51.262Z,20.40
2017-06-23T09:37:20.764Z,19.37
2017-06-23T09:39:53.126Z,19.33
2017-06-23T09:42:25.909Z,18.85
2017-06-23T09:45:05.315Z,18.12
2017-06-23T09:47:33.098Z,18.20
2017-06-23T09:50:02.696Z,18.85
2017-06-23T09:52:35.039Z,16.95
2017-06-23T09:55:02.576Z,17.35
2017-06-23T09:57:35.115Z,16.58
2017-06-23T10:00:04.735Z,16.50
2017-06-23T10:02:34.807Z,16.85
2017-06-23T10:08:01.371Z,14.20
2017-06-23T10:10:34.475Z,15.00
2017-06-23T10:21:50.998Z,13.50
2017-06-23T10:24:26.744Z,14.05
2017-06-23T10:26:56.881Z,13.60
2017-06-23T10:29:23.099Z,14.15
2017-06-23T10:31:49.386Z,15.10
2017-06-23T10:34:15.782Z,15.40
2017-06-23T10:36:42.056Z,15.05
2017-06-23T10:39:08.326Z,15.13
2017-06-23T10:41:40.770Z,14.73
2017-06-23T10:44:08.959Z,14.45
2017-06-23T10:46:35.185Z,14.80
2017-06-23T10:49:12.067Z,17.87
2017-06-23T10:51:44.753Z,15.10
2017-06-23T10:54:15.365Z,15.18
2017-06-23T10:56:48.241Z,14.65
2017-06-23T10:59:23.005Z,14.80
2017-06-23T11:01:57.713Z,14.70
2017-06-23T11:04:37.479Z,13.80
2017-06-23T11:07:06.016Z,14.50
2017-06-23T11:09:32.885Z,13.95
2017-06-23T11:12:11.445Z,13.35
2017-06-23T11:14:56.856Z,13.00
2017-06-23T11:17:29.554Z,13.15
2017-06-23T11:25:41.715Z,14.00
2017-06-23T11:28:26.198Z,13.00
2017-06-23T11:30:52.644Z,13.30
2017-06-23T11:33:36.910Z,13.82
2017-06-23T11:36:03.380Z,13.40
2017-06-23T11:38:30.036Z,13.32
2017-06-23T11:40:56.538Z,13.93
2017-06-23T11:43:23.154Z,13.50
2017-06-23T11:51:42.453Z,14.07
2017-06-23T11:54:08.723Z,13.45
2017-06-23T11:56:35.142Z,13.10
2017-06-23T11:59:01.413Z,13.40
2017-06-23T12:01:27.844Z,13.13
2017-06-23T12:03:54.217Z,13.02
2017-06-23T12:06:20.617Z,13.00
2017-06-23T12:08:47.264Z,12.77
2017-06-23T12:11:13.649Z,13.20
2017-06-23T12:13:40.395Z,12.90
2017-06-23T12:16:06.690Z,13.05
2017-06-23T12:18:32.871Z,12.90
2017-06-23T12:20:59.070Z,12.15
2017-06-23T12:23:25.258Z,11.35
2017-06-23T12:25:51.442Z,11.05
2017-06-23T12:28:17.630Z,10.98
2017-06-23T12:30:43.790Z,11.23
2017-06-23T12:33:09.977Z,11.00
2017-06-23T12:35:36.548Z,10.10
2017-06-23T12:38:02.741Z,10.40
2017-06-23T12:40:28.970Z,9.80
2017-06-23T12:42:55.186Z,9.60
2017-06-23T12:45:21.373Z,8.90
2017-06-23T12:47:47.583Z,9.60
2017-06-23T12:50:13.789Z,10.30
2017-06-23T12:52:39.969Z,9.20
2017-06-23T12:55:06.177Z,9.80
2017-06-23T12:57:32.396Z,9.50
2017-06-23T12:59:58.573Z,9.60
2017-06-23T13:02:24.796Z,9.57
2017-06-23T13:04:51.026Z,9.38
2017-06-23T13:07:17.242Z,9.82
2017-06-23T13:09:43.418Z,9.85
2017-06-23T13:12:30.512Z,9.57
2017-06-23T13:14:56.928Z,8.90
2017-06-23T13:17:23.150Z,10.00
2017-06-23T13:19:49.404Z,9.40
2017-06-23T13:22:15.814Z,9.63
2017-06-23T13:24:53.511Z,9.20
2017-06-23T13:27:20.224Z,9.18
2017-06-23T13:29:46.702Z,8.80
2017-06-23T13:32:13.271Z,8.80
2017-06-23T13:34:39.900Z,11.90
2017-06-23T13:37:06.715Z,9.20
2017-06-23T13:39:33.803Z,8.90
2017-06-23T13:42:00.887Z,8.60
2017-06-23T13:44:28.378Z,8.30
2017-06-23T13:46:54.984Z,9.15
2017-06-23T13:52:14.671Z,9.40
2017-06-23T13:54:41.179Z,9.18
2017-06-23T13:57:11.618Z,9.00
2017-06-23T13:59:38.114Z,9.20
2017-06-23T14:02:04.673Z,9.40
2017-06-23T14:04:31.166Z,9.37
2017-06-23T14:06:57.620Z,9.15
2017-06-23T14:09:24.128Z,9.00
2017-06-23T14:11:51.136Z,9.20
2017-06-23T14:14:17.616Z,8.60
2017-06-23T14:16:44.064Z,8.85
2017-06-23T14:19:10.721Z,9.00
2017-06-23T14:21:37.188Z,9.48
2017-06-23T14:24:03.784Z,9.50
2017-06-23T14:26:30.278Z,9.38
2017-06-23T14:28:56.701Z,10.20
2017-06-23T14:31:23.370Z,8.85
2017-06-23T14:33:49.915Z,9.07
2017-06-23T14:36:17.483Z,9.03
2017-06-23T14:38:44.040Z,9.18
2017-06-23T14:41:10.759Z,9.25
2017-06-23T14:43:37.279Z,9.40
2017-06-23T14:46:03.752Z,9.13
2017-06-23T14:48:30.164Z,9.00
2017-06-23T14:50:56.631Z,9.30
2017-06-23T14:53:23.064Z,8.90
2017-06-23T14:55:49.660Z,9.43
2017-06-23T14:58:16.168Z,9.95
2017-06-23T15:00:42.725Z,9.25
2017-06-23T15:03:09.171Z,9.63
2017-06-23T15:05:35.925Z,9.80
2017-06-23T15:08:02.394Z,9.73
2017-06-23T15:10:28.912Z,9.90
2017-06-23T15:12:55.344Z,10.38
2017-06-23T15:15:21.770Z,11.00
2017-06-23T15:17:48.192Z,9.98
2017-06-23T15:20:14.668Z,10.38
2017-06-23T15:22:41.088Z,10.95
2017-06-23T15:25:07.616Z,10.70
2017-06-23T15:27:34.136Z,10.60
2017-06-23T15:30:00.618Z,10.40
2017-06-23T15:32:27.039Z,11.35
2017-06-23T15:34:53.525Z,10.90
2017-06-23T15:37:20.029Z,10.88
2017-06-23T15:39:46.800Z,11.20
2017-06-23T15:42:13.239Z,10.70
2017-06-23T15:44:39.687Z,10.82
2017-06-23T15:47:06.251Z,10.85
2017-06-23T15:49:32.757Z,10.30
2017-06-23T15:51:59.237Z,10.80
2017-06-23T15:54:25.792Z,11.10
2017-06-23T15:56:52.255Z,10.82
2017-06-23T15:59:18.704Z,10.40
2017-06-23T16:01:45.308Z,11.55
2017-06-23T16:04:12.046Z,10.43
2017-06-23T16:06:38.759Z,13.70
2017-06-23T16:09:05.228Z,10.80
2017-06-23T16:11:31.706Z,11.40
2017-06-23T16:13:58.257Z,11.10
2017-06-23T16:16:24.762Z,10.82
2017-06-23T16:18:51.716Z,12.00
2017-06-23T16:21:18.231Z,10.82
2017-06-23T16:23:44.831Z,10.70
2017-06-23T16:26:11.327Z,11.38
2017-06-23T16:28:37.774Z,11.20
2017-06-23T16:31:04.254Z,11.70
2017-06-23T16:33:30.697Z,11.40
2017-06-23T16:35:57.187Z,12.10
2017-06-23T16:38:23.653Z,11.90
2017-06-23T16:40:50.083Z,11.77
2017-06-23T16:43:16.502Z,11.80
2017-06-23T16:45:42.923Z,12.07
2017-06-23T16:48:09.377Z,12.48
2017-06-23T16:50:35.847Z,11.67
2017-06-23T16:53:02.312Z,12.60
2017-06-23T16:55:28.979Z,12.27
2017-06-23T16:57:55.420Z,12.23
2017-06-23T17:00:21.834Z,12.85
2017-06-23T17:02:48.304Z,12.95
2017-06-23T17:05:14.758Z,13.00
2017-06-23T17:07:41.378Z,12.77
2017-06-23T17:10:07.808Z,12.80
2017-06-23T17:12:35.278Z,12.40
2017-06-23T17:15:01.742Z,12.90
2017-06-23T17:17:28.267Z,13.20
2017-06-23T17:19:54.700Z,13.25
2017-06-23T17:22:21.128Z,13.07
2017-06-23T17:24:47.637Z,13.70
2017-06-23T17:27:14.099Z,14.60
2017-06-23T17:29:40.557Z,11.40
2017-06-23T17:32:06.966Z,12.00
2017-06-23T17:34:33.445Z,12.40
2017-06-23T17:36:59.980Z,11.63
2017-06-23T17:39:26.411Z,11.53
2017-06-23T17:41:52.892Z,10.82
2017-06-23T17:44:19.354Z,11.10
2017-06-23T17:46:45.747Z,10.88
2017-06-23T17:49:12.222Z,10.70
2017-06-23T17:51:38.845Z,11.60
2017-06-23T17:54:05.299Z,11.30
2017-06-23T17:56:31.800Z,10.98
2017-06-23T17:58:58.270Z,11.00
2017-06-23T18:01:24.692Z,10.80
2017-06-23T18:03:51.159Z,11.45
2017-06-23T18:06:17.671Z,10.80
2017-06-23T18:08:44.149Z,11.40
2017-06-23T18:11:10.668Z,11.00
2017-06-23T18:13:37.197Z,11.50
2017-06-23T18:16:03.645Z,10.80
2017-06-23T18:18:30.097Z,11.60
2017-06-23T18:20:56.547Z,11.17
2017-06-23T18:23:23.014Z,11.52
2017-06-23T18:25:49.489Z,11.10
2017-06-23T18:28:15.967Z,11.95
2017-06-23T18:30:42.482Z,11.77
2017-06-23T18:33:08.908Z,10.80
2017-06-23T18:35:35.413Z,11.17
2017-06-23T18:38:02.161Z,11.57
2017-06-23T18:40:29.653Z,11.27
2017-06-23T18:42:56.104Z,11.45
2017-06-23T18:45:22.527Z,11.98
2017-06-23T18:47:48.997Z,11.52
2017-06-23T18:50:15.445Z,11.07
2017-06-23T18:52:41.876Z,11.52
2017-06-23T18:55:08.323Z,11.57
2017-06-23T18:57:34.781Z,12.00
2017-06-23T19:00:01.229Z,10.85
2017-06-23T19:02:27.936Z,11.20
2017-06-23T19:04:54.418Z,11.50
2017-06-23T19:07:20.876Z,11.50
2017-06-23T19:09:47.488Z,11.48
2017-06-23T19:12:13.969Z,12.37
2017-06-23T19:14:40.506Z,12.70
2017-06-23T19:17:06.962Z,12.10
2017-06-23T19:19:33.417Z,12.30
2017-06-23T19:22:00.151Z,12.97
2017-06-23T19:24:26.608Z,12.30
2017-06-23T19:26:53.131Z,12.77
2017-06-23T19:29:19.567Z,12.40
2017-06-23T19:31:46.017Z,13.20
2017-06-23T19:34:12.505Z,12.70
2017-06-23T19:36:38.992Z,13.82
2017-06-23T19:39:05.682Z,13.23
2017-06-23T19:41:32.236Z,14.00
2017-06-23T19:43:58.772Z,14.25
2017-06-23T19:46:25.271Z,14.02
2017-06-23T19:48:51.746Z,14.45
2017-06-23T19:51:18.233Z,13.57
2017-06-23T19:53:44.691Z,14.20
2017-06-23T19:56:11.170Z,14.70
2017-06-23T19:58:37.660Z,14.38
2017-06-23T20:01:04.116Z,14.85
2017-06-23T20:03:30.817Z,14.38
2017-06-23T20:05:57.316Z,14.87
2017-06-23T20:08:23.877Z,15.23
2017-06-23T20:10:50.374Z,15.20
2017-06-23T20:13:16.849Z,17.90
2017-06-23T20:15:43.379Z,16.77
2017-06-23T20:18:09.869Z,15.57
2017-06-23T20:20:36.389Z,15.10
2017-06-23T20:23:02.895Z,15.07
2017-06-23T20:25:29.359Z,15.10
2017-06-23T20:27:55.826Z,15.70
2017-06-23T20:30:22.307Z,15.07
2017-06-23T20:32:48.775Z,15.60
2017-06-23T20:35:15.224Z,15.55
2017-06-23T20:37:41.640Z,15.10
2017-06-23T20:40:08.076Z,15.63
2017-06-23T20:42:34.540Z,14.80
2017-06-23T20:45:01.038Z,16.00
2017-06-23T20:47:27.500Z,16.23
2017-06-23T20:49:53.968Z,15.85
2017-06-23T20:52:20.433Z,15.48
2017-06-23T20:54:47.761Z,15.30
2017-06-23T20:57:14.266Z,15.32
2017-06-23T20:59:40.708Z,15.32
2017-06-23T21:02:07.153Z,16.02
2017-06-23T21:04:33.649Z,16.23
2017-06-23T21:07:00.157Z,15.70
2017-06-23T21:09:26.627Z,16.25
2017-06-23T21:11:53.135Z,16.35
2017-06-23T21:14:19.622Z,16.30
2017-06-23T21:16:46.037Z,15.38
2017-06-23T21:19:12.493Z,15.63
2017-06-23T21:21:38.925Z,15.52
2017-06-23T21:24:05.379Z,15.80
2017-06-23T21:26:31.846Z,15.50
2017-06-23T21:28:58.431Z,16.42
2017-06-23T21:31:24.898Z,16.98
2017-06-23T21:33:51.398Z,16.27
2017-06-23T21:36:17.880Z,15.98
2017-06-23T21:38:44.340Z,15.70
2017-06-23T21:41:22.860Z,15.57
2017-06-23T21:43:49.322Z,15.18
2017-06-23T21:46:15.760Z,15.48
2017-06-23T21:48:42.220Z,15.60
2017-06-23T21:51:08.797Z,15.30
2017-06-23T21:53:35.254Z,15.27
2017-06-23T21:56:01.724Z,15.10
2017-06-23T21:58:28.181Z,15.70
2017-06-23T22:00:54.597Z,15.50
2017-06-23T22:03:21.035Z,15.30
2017-06-23T22:05:47.483Z,14.95
2017-06-23T22:08:13.943Z,15.60
2017-06-23T22:10:40.674Z,15.57
2017-06-23T22:13:07.141Z,15.35
2017-06-23T22:15:33.571Z,15.50
2017-06-23T22:18:00.045Z,15.63
2017-06-23T22:20:26.462Z,15.10
2017-06-23T22:22:52.920Z,15.50
2017-06-23T22:25:19.378Z,15.25
2017-06-23T22:27:45.935Z,15.68
2017-06-23T22:30:12.395Z,15.07
2017-06-23T22:32:38.868Z,15.40
2017-06-23T22:35:05.354Z,14.70
2017-06-23T22:37:32.012Z,15.00
2017-06-23T22:39:58.544Z,14.70
2017-06-23T22:42:25.192Z,15.50
2017-06-23T22:44:51.647Z,15.05
2017-06-23T22:47:18.091Z,15.43
2017-06-23T22:49:44.530Z,15.00
2017-06-23T22:52:11.006Z,15.57
2017-06-23T22:54:37.475Z,15.57
2017-06-23T22:57:03.922Z,15.77
2017-06-23T22:59:30.337Z,16.10
2017-06-23T23:01:56.783Z,14.95
2017-06-23T23:04:23.218Z,15.35
2017-06-23T23:06:49.671Z,15.80
2017-06-23T23:09:16.102Z,15.95
2017-06-23T23:11:42.514Z,16.00
2017-06-23T23:14:09.005Z,16.23
2017-06-23T23:16:35.481Z,16.05
2017-06-23T23:19:02.016Z,15.63
2017-06-23T23:21:28.555Z,15.75
2017-06-23T23:23:56.158Z,15.93
2017-06-23T23:26:22.908Z,17.20
2017-06-23T23:28:49.362Z,16.15
2017-06-23T23:31:15.938Z,16.12
2017-06-23T23:33:42.394Z,15.73
2017-06-23T23:36:09.683Z,16.12
2017-06-23T23:38:36.389Z,16.02
2017-06-23T23:41:02.862Z,16.30
2017-06-23T23:43:29.459Z,17.25
2017-06-23T23:45:55.963Z,16.40
2017-06-23T23:48:22.685Z,16.80
2017-06-23T23:50:49.129Z,16.83
2017-06-23T23:53:15.994Z,16.25
2017-06-23T23:55:42.469Z,16.73
2017-06-23T23:58:08.897Z,15.70
